createdAt,value
2023-01-13T00:00:58.805Z,25.48
2023-01-13T00:03:25.335Z,16.92
2023-01-13T00:05:51.683Z,18.60
2023-01-13T00:08:18.047Z,21.70
2023-01-13T00:10:48.092Z,17.30
2023-01-13T00:13:14.811Z,16.20
2023-01-13T00:15:41.288Z,18.02
2023-01-13T00:18:07.743Z,21.33
2023-01-13T00:20:34.183Z,17.50
2023-01-13T00:23:01.321Z,13.23
2023-01-13T00:25:27.685Z,17.42
2023-01-13T00:27:54.254Z,20.20
2023-01-13T00:30:20.617Z,21.20
2023-01-13T00:32:47.019Z,17.58
2023-01-13T00:35:13.389Z,17.83
2023-01-13T00:37:41.032Z,9.68
2023-01-13T00:40:08.386Z,22.63
2023-01-13T00:42:53.402Z,20.13
2023-01-13T00:45:19.758Z,26.63
2023-01-13T00:47:46.146Z,21.17
2023-01-13T00:50:12.518Z,15.73
2023-01-13T00:52:41.167Z,14.10
2023-01-13T00:55:08.767Z,15.47
2023-01-13T00:57:35.177Z,22.05
2023-01-13T01:00:01.736Z,19.17
2023-01-13T01:02:28.204Z,14.73
2023-01-13T01:04:54.736Z,15.80
2023-01-13T01:07:21.116Z,15.33
2023-01-13T01:09:47.480Z,13.98
2023-01-13T01:12:14.239Z,21.75
2023-01-13T01:14:40.601Z,16.52
2023-01-13T01:17:06.936Z,15.75
2023-01-13T01:19:37.314Z,17.23
2023-01-13T01:22:03.745Z,22.48
2023-01-13T01:24:30.150Z,27.30
2023-01-13T01:26:56.490Z,15.90
2023-01-13T01:29:22.880Z,17.63
2023-01-13T01:31:49.363Z,18.37
2023-01-13T01:34:15.734Z,15.38
2023-01-13T01:36:42.168Z,19.17
2023-01-13T01:39:09.876Z,17.65
2023-01-13T01:41:37.224Z,19.10
2023-01-13T01:44:41.388Z,18.43
2023-01-13T01:47:11.291Z,20.23
2023-01-13T01:49:39.512Z,13.88
2023-01-13T01:52:14.537Z,15.75
2023-01-13T01:54:50.682Z,22.85
2023-01-13T01:57:28.573Z,23.97
2023-01-13T01:59:55.628Z,13.95
2023-01-13T02:02:22.587Z,22.73
2023-01-13T02:04:53.940Z,25.42
2023-01-13T02:07:27.746Z,20.50
2023-01-13T02:09:56.359Z,21.43
2023-01-13T02:12:31.966Z,16.38
2023-01-13T02:15:07.318Z,18.45
2023-01-13T02:17:48.920Z,17.42
2023-01-13T02:20:35.344Z,25.25
2023-01-13T02:23:51.950Z,24.67
2023-01-13T02:26:55.194Z,20.58
2023-01-13T02:29:58.661Z,15.60
2023-01-13T02:33:09.843Z,18.00
2023-01-13T02:35:42.000Z,25.67
2023-01-13T02:38:13.135Z,20.03
2023-01-13T02:40:45.251Z,18.58
2023-01-13T02:43:41.487Z,17.40
2023-01-13T02:46:15.039Z,23.58
2023-01-13T02:48:45.604Z,15.15
2023-01-13T02:51:23.249Z,19.07
2023-01-13T02:53:59.437Z,14.85
2023-01-13T02:56:26.723Z,26.13
2023-01-13T02:58:55.771Z,22.48
2023-01-13T03:01:22.620Z,18.95
2023-01-13T03:03:50.097Z,22.47
2023-01-13T03:06:16.442Z,16.83
2023-01-13T03:09:05.251Z,27.58
2023-01-13T03:11:43.884Z,23.67
2023-01-13T03:14:35.783Z,26.05
2023-01-13T03:17:16.644Z,22.70
2023-01-13T03:20:03.345Z,18.85
2023-01-13T03:22:44.889Z,16.38
2023-01-13T03:25:36.591Z,19.05
2023-01-13T03:28:08.653Z,14.55
2023-01-13T03:30:47.959Z,20.33
2023-01-13T03:33:57.870Z,19.50
2023-01-13T03:36:28.052Z,16.67
2023-01-13T03:38:58.925Z,12.20
2023-01-13T03:41:57.232Z,12.63
2023-01-13T03:44:33.795Z,18.50
2023-01-13T03:47:15.304Z,20.23
2023-01-13T03:50:02.313Z,19.60
2023-01-13T03:52:33.158Z,18.65
2023-01-13T03:55:22.650Z,13.15
2023-01-13T03:57:55.573Z,12.73
2023-01-13T04:00:37.499Z,16.17
2023-01-13T04:03:12.025Z,14.38
2023-01-13T04:05:47.410Z,16.58
2023-01-13T04:08:25.870Z,11.43
2023-01-13T04:11:03.518Z,10.07
2023-01-13T04:13:36.619Z,14.70
2023-01-13T04:16:06.572Z,19.75
2023-01-13T04:18:33.179Z,15.88
2023-01-13T04:21:01.814Z,15.50
2023-01-13T04:23:29.051Z,13.10
2023-01-13T04:25:56.162Z,13.02
2023-01-13T04:28:23.528Z,13.65
2023-01-13T04:30:50.066Z,6.50
2023-01-13T04:33:18.101Z,8.05
2023-01-13T04:35:46.180Z,5.17
2023-01-13T04:38:18.195Z,11.10
2023-01-13T04:40:45.203Z,12.05
2023-01-13T04:43:12.399Z,9.05
2023-01-13T04:45:39.042Z,8.38
2023-01-13T04:48:05.879Z,7.93
2023-01-13T04:50:32.457Z,9.85
2023-01-13T04:53:00.439Z,13.35
2023-01-13T04:55:27.655Z,6.90
2023-01-13T04:57:54.137Z,5.00
2023-01-13T05:00:22.771Z,10.37
2023-01-13T05:02:50.848Z,9.15
2023-01-13T05:05:17.978Z,10.15
2023-01-13T05:07:44.549Z,10.20
2023-01-13T05:10:11.651Z,8.15
2023-01-13T05:12:56.711Z,12.30
2023-01-13T05:15:41.860Z,7.68
2023-01-13T05:18:08.688Z,13.43
2023-01-13T05:20:35.203Z,4.03
2023-01-13T05:23:20.420Z,9.23
2023-01-13T05:25:48.182Z,10.50
2023-01-13T05:28:15.123Z,10.13
2023-01-13T05:30:44.051Z,13.27
2023-01-13T05:33:11.762Z,7.78
2023-01-13T05:35:39.565Z,12.57
2023-01-13T05:38:06.007Z,8.97
2023-01-13T05:40:51.377Z,13.40
2023-01-13T05:43:20.062Z,7.75
2023-01-13T05:45:59.719Z,8.55
2023-01-13T05:48:33.018Z,7.45
2023-01-13T05:51:00.393Z,8.50
2023-01-13T05:53:27.176Z,10.23
2023-01-13T05:55:54.383Z,9.95
2023-01-13T05:58:23.205Z,15.23
2023-01-13T06:00:50.485Z,9.88
2023-01-13T06:03:20.079Z,9.33
2023-01-13T06:05:47.562Z,12.32
2023-01-13T06:08:14.221Z,9.75
2023-01-13T06:10:40.646Z,7.50
2023-01-13T06:13:07.017Z,8.23
2023-01-13T06:15:33.395Z,9.13
2023-01-13T06:18:03.160Z,9.85
2023-01-13T06:20:29.610Z,11.27
2023-01-13T06:22:56.095Z,12.20
2023-01-13T06:25:47.095Z,8.57
2023-01-13T06:28:13.661Z,10.37
2023-01-13T06:30:45.526Z,15.82
2023-01-13T06:33:20.276Z,14.23
2023-01-13T06:35:53.328Z,11.07
2023-01-13T06:38:23.669Z,10.88
2023-01-13T06:40:50.228Z,9.70
2023-01-13T06:43:17.392Z,13.40
2023-01-13T06:45:50.928Z,9.98
2023-01-13T06:48:18.556Z,9.85
2023-01-13T06:50:45.189Z,12.95
2023-01-13T06:53:12.279Z,9.43
2023-01-13T06:55:38.886Z,13.70
2023-01-13T06:58:05.660Z,13.07
2023-01-13T07:00:37.982Z,12.68
2023-01-13T07:03:10.415Z,21.75
2023-01-13T07:05:37.345Z,12.30
2023-01-13T07:08:04.193Z,9.63
2023-01-13T07:10:31.572Z,10.00
2023-01-13T07:13:19.064Z,13.82
2023-01-13T07:16:00.583Z,15.02
2023-01-13T07:18:31.400Z,11.60
2023-01-13T07:21:00.751Z,15.55
2023-01-13T07:23:29.303Z,10.65
2023-01-13T07:25:59.558Z,14.20
2023-01-13T07:28:27.491Z,14.80
2023-01-13T07:30:54.659Z,12.27
2023-01-13T07:33:21.583Z,8.25
2023-01-13T07:35:48.904Z,12.20
2023-01-13T07:38:15.768Z,11.43
2023-01-13T07:40:42.113Z,17.45
2023-01-13T07:43:30.849Z,15.20
2023-01-13T07:46:05.994Z,12.13
2023-01-13T07:48:34.731Z,16.75
2023-01-13T07:51:06.233Z,16.60
2023-01-13T07:53:33.580Z,16.10
2023-01-13T07:56:01.040Z,14.77
2023-01-13T07:58:28.630Z,10.82
2023-01-13T08:00:55.914Z,10.85
2023-01-13T08:03:23.149Z,15.68
2023-01-13T08:05:50.439Z,16.52
2023-01-13T08:08:17.050Z,12.67
2023-01-13T08:10:43.616Z,14.30
2023-01-13T08:13:18.096Z,11.85
2023-01-13T08:15:45.530Z,9.27
2023-01-13T08:18:12.593Z,12.95
2023-01-13T08:20:38.950Z,13.77
2023-01-13T08:23:07.313Z,13.15
2023-01-13T08:25:34.111Z,12.05
2023-01-13T08:28:00.524Z,13.60
2023-01-13T08:30:27.904Z,9.95
2023-01-13T08:32:54.655Z,11.77
2023-01-13T08:35:21.821Z,17.67
2023-01-13T08:37:48.728Z,15.20
2023-01-13T08:40:16.928Z,15.60
2023-01-13T08:42:43.739Z,11.48
2023-01-13T08:45:10.982Z,14.83
2023-01-13T08:47:37.418Z,12.10
2023-01-13T08:50:04.522Z,16.30
2023-01-13T08:52:30.991Z,13.60
2023-01-13T08:54:57.345Z,12.85
2023-01-13T08:57:23.778Z,11.57
2023-01-13T08:59:50.260Z,13.85
2023-01-13T09:02:21.084Z,15.50
2023-01-13T09:04:47.762Z,12.52
2023-01-13T09:07:15.002Z,18.10
2023-01-13T09:09:41.467Z,14.77
2023-01-13T09:12:30.725Z,17.27
2023-01-13T09:14:57.539Z,12.80
2023-01-13T09:17:23.981Z,11.35
2023-01-13T09:19:50.341Z,16.33
2023-01-13T09:22:19.062Z,12.13
2023-01-13T09:24:46.340Z,14.65
2023-01-13T09:27:14.764Z,13.45
2023-01-13T09:29:41.445Z,10.35
2023-01-13T09:32:11.233Z,14.18
2023-01-13T09:34:56.151Z,12.63
2023-01-13T09:37:22.683Z,18.67
2023-01-13T09:39:49.138Z,13.23
2023-01-13T09:42:40.768Z,16.25
2023-01-13T09:45:07.368Z,16.05
2023-01-13T09:47:43.506Z,15.73
2023-01-13T09:50:44.854Z,13.70
2023-01-13T09:53:21.108Z,11.02
2023-01-13T09:55:47.602Z,12.13
2023-01-13T09:58:18.637Z,12.02
2023-01-13T10:01:00.163Z,12.50
2023-01-13T10:03:29.864Z,13.40
2023-01-13T10:06:10.758Z,13.70
2023-01-13T10:08:42.718Z,11.32
2023-01-13T10:11:39.803Z,19.17
2023-01-13T10:14:24.012Z,15.30
2023-01-13T10:16:54.733Z,15.25
2023-01-13T10:19:29.455Z,9.18
2023-01-13T10:22:34.590Z,14.30
2023-01-13T10:25:06.941Z,13.63
2023-01-13T10:27:37.174Z,11.60
2023-01-13T10:30:31.159Z,16.50
2023-01-13T10:33:09.841Z,13.30
2023-01-13T10:35:54.945Z,15.85
2023-01-13T10:38:43.465Z,11.90
2023-01-13T10:41:15.750Z,12.00
2023-01-13T10:43:43.285Z,12.05
2023-01-13T10:46:18.390Z,11.90
2023-01-13T10:49:21.150Z,12.07
2023-01-13T10:51:47.917Z,14.02
2023-01-13T10:54:23.424Z,15.53
2023-01-13T10:57:10.495Z,16.00
2023-01-13T10:59:36.868Z,16.60
2023-01-13T11:02:29.259Z,17.80
2023-01-13T11:04:55.787Z,9.32
2023-01-13T11:07:42.156Z,13.07
2023-01-13T11:10:23.627Z,12.18
2023-01-13T11:12:59.251Z,18.35
2023-01-13T11:15:39.820Z,15.95
2023-01-13T11:18:37.722Z,16.33
2023-01-13T11:21:17.840Z,8.40
2023-01-13T11:23:52.192Z,10.60
2023-01-13T11:26:27.574Z,10.43
2023-01-13T11:29:14.149Z,10.57
2023-01-13T11:31:48.107Z,11.90
2023-01-13T11:34:36.677Z,12.73
2023-01-13T11:37:14.537Z,8.10
2023-01-13T11:39:56.835Z,13.45
2023-01-13T11:42:31.193Z,12.18
2023-01-13T11:45:17.311Z,11.65
2023-01-13T11:47:47.133Z,13.47
2023-01-13T11:50:26.177Z,8.35
2023-01-13T11:53:15.966Z,10.13
2023-01-13T11:56:08.129Z,9.00
2023-01-13T11:58:51.079Z,12.00
2023-01-13T12:01:31.370Z,7.90
2023-01-13T12:04:22.679Z,10.50
2023-01-13T12:07:27.603Z,12.63
2023-01-13T12:10:03.754Z,6.30
2023-01-13T12:13:00.142Z,9.45
2023-01-13T12:15:35.941Z,8.17
2023-01-13T12:18:18.023Z,9.07
2023-01-13T12:21:00.882Z,12.05
2023-01-13T12:23:32.387Z,8.43
2023-01-13T12:26:06.342Z,10.75
2023-01-13T12:28:44.655Z,7.03
2023-01-13T12:31:12.592Z,9.18
2023-01-13T12:34:36.265Z,11.20
2023-01-13T12:37:21.269Z,11.82
2023-01-13T12:39:58.653Z,11.90
2023-01-13T12:43:05.873Z,10.73
2023-01-13T12:45:33.659Z,8.88
2023-01-13T12:48:00.854Z,10.13
2023-01-13T12:50:27.232Z,7.10
2023-01-13T12:53:21.238Z,5.50
2023-01-13T12:55:53.666Z,10.67
2023-01-13T12:58:29.597Z,14.30
2023-01-13T13:01:10.797Z,10.00
2023-01-13T13:03:37.648Z,7.88
2023-01-13T13:06:24.000Z,10.00
2023-01-13T13:09:03.132Z,9.50
2023-01-13T13:11:56.418Z,6.07
2023-01-13T13:14:38.088Z,7.70
2023-01-13T13:17:25.420Z,6.80
2023-01-13T13:19:52.138Z,8.38
2023-01-13T13:22:20.990Z,5.47
2023-01-13T13:24:57.404Z,6.45
2023-01-13T13:27:42.625Z,9.43
2023-01-13T13:30:27.441Z,12.80
2023-01-13T13:33:22.895Z,8.02
2023-01-13T13:36:21.893Z,4.63
2023-01-13T13:39:23.635Z,8.85
2023-01-13T13:42:12.497Z,9.38
2023-01-13T13:45:01.326Z,5.80
2023-01-13T13:47:36.118Z,4.30
2023-01-13T13:50:08.857Z,10.17
2023-01-13T13:52:43.181Z,8.20
2023-01-13T13:55:15.033Z,8.68
2023-01-13T13:57:46.765Z,7.97
2023-01-13T14:00:18.046Z,7.05
2023-01-13T14:03:06.416Z,6.53
2023-01-13T14:05:37.203Z,7.60
2023-01-13T14:08:12.905Z,10.02
2023-01-13T14:10:43.378Z,13.05
2023-01-13T14:13:36.314Z,7.80
2023-01-13T14:16:10.692Z,4.53
2023-01-13T14:18:45.471Z,10.73
2023-01-13T14:21:19.476Z,8.20
2023-01-13T14:24:10.458Z,7.05
2023-01-13T14:26:36.899Z,6.72
2023-01-13T14:29:03.729Z,8.30
2023-01-13T14:31:31.485Z,8.32
2023-01-13T14:34:02.766Z,8.77
2023-01-13T14:36:51.148Z,8.20
2023-01-13T14:39:17.790Z,10.93
2023-01-13T14:41:45.439Z,8.27
2023-01-13T14:44:20.678Z,12.07
2023-01-13T14:46:47.301Z,5.70
2023-01-13T14:49:24.463Z,5.72
2023-01-13T14:51:51.491Z,7.90
2023-01-13T14:54:45.222Z,7.70
2023-01-13T14:57:25.229Z,10.23
2023-01-13T15:00:13.230Z,9.48
2023-01-13T15:02:49.863Z,6.85
2023-01-13T15:05:19.281Z,10.52
2023-01-13T15:07:54.477Z,13.03
2023-01-13T15:11:07.163Z,7.57
2023-01-13T15:13:43.686Z,9.48
2023-01-13T15:16:25.175Z,4.97
2023-01-13T15:18:52.365Z,6.00
2023-01-13T15:21:19.528Z,7.93
2023-01-13T15:23:47.272Z,6.65
2023-01-13T15:26:24.522Z,6.05
2023-01-13T15:28:51.993Z,11.60
2023-01-13T15:31:18.874Z,10.57
2023-01-13T15:33:45.360Z,10.40
2023-01-13T15:36:33.449Z,9.35
2023-01-13T15:39:01.062Z,5.53
2023-01-13T15:41:46.745Z,4.30
2023-01-13T15:44:33.530Z,6.88
2023-01-13T15:47:04.273Z,11.43
2023-01-13T15:49:42.432Z,9.10
2023-01-13T15:52:22.368Z,8.60
2023-01-13T15:54:49.644Z,8.55
2023-01-13T15:57:23.636Z,9.93
2023-01-13T15:59:51.728Z,6.77
2023-01-13T16:02:22.568Z,6.47
2023-01-13T16:04:51.296Z,7.20
2023-01-13T16:07:18.952Z,5.35
2023-01-13T16:09:45.689Z,6.53
2023-01-13T16:12:13.316Z,12.00
2023-01-13T16:14:39.894Z,11.07
2023-01-13T16:17:24.860Z,8.30
2023-01-13T16:19:51.949Z,8.05
2023-01-13T16:22:18.723Z,12.82
2023-01-13T16:24:45.335Z,9.03
2023-01-13T16:27:23.664Z,8.30
2023-01-13T16:29:51.550Z,12.88
2023-01-13T16:32:19.586Z,9.57
2023-01-13T16:34:46.835Z,8.43
2023-01-13T16:37:24.625Z,8.23
2023-01-13T16:39:52.647Z,7.15
2023-01-13T16:42:20.095Z,13.10
2023-01-13T16:44:48.273Z,5.43
2023-01-13T16:47:16.777Z,7.03
2023-01-13T16:49:43.848Z,8.93
2023-01-13T16:52:10.585Z,11.35
2023-01-13T16:54:37.127Z,9.93
2023-01-13T16:57:03.687Z,5.47
2023-01-13T16:59:30.177Z,9.20
2023-01-13T17:01:56.658Z,13.80
2023-01-13T17:04:23.552Z,9.02
2023-01-13T17:06:58.246Z,6.28
2023-01-13T17:09:27.418Z,7.18
2023-01-13T17:11:55.058Z,9.38
2023-01-13T17:14:23.386Z,7.27
2023-01-13T17:16:52.032Z,9.48
2023-01-13T17:19:19.293Z,4.15
2023-01-13T17:21:47.054Z,6.28
2023-01-13T17:24:14.110Z,6.03
2023-01-13T17:26:44.023Z,6.43
2023-01-13T17:29:25.158Z,4.53
2023-01-13T17:31:53.007Z,4.07
2023-01-13T17:34:21.215Z,9.60
2023-01-13T17:36:48.252Z,7.30
2023-01-13T17:39:19.993Z,4.60
2023-01-13T17:41:46.730Z,3.78
2023-01-13T17:44:14.992Z,4.97
2023-01-13T17:46:42.400Z,4.15
2023-01-13T17:49:10.964Z,2.47
2023-01-13T17:51:38.143Z,1.47
2023-01-13T17:54:04.714Z,1.33
2023-01-13T17:56:31.163Z,2.08
2023-01-13T17:58:58.314Z,1.48
2023-01-13T18:01:26.559Z,1.05
2023-01-13T18:03:53.043Z,1.90
2023-01-13T18:06:22.882Z,1.67
2023-01-13T18:08:50.324Z,5.95
2023-01-13T18:11:18.933Z,4.68
2023-01-13T18:13:50.089Z,4.38
2023-01-13T18:16:18.820Z,2.73
2023-01-13T18:18:47.099Z,4.63
2023-01-13T18:21:39.326Z,5.63
2023-01-13T18:24:29.166Z,4.40
2023-01-13T18:27:13.871Z,2.72
2023-01-13T18:29:40.247Z,3.80
2023-01-13T18:32:08.797Z,9.27
2023-01-13T18:34:36.195Z,9.60
2023-01-13T18:37:03.189Z,14.02
2023-01-13T18:39:29.586Z,4.50
2023-01-13T18:42:14.637Z,7.53
2023-01-13T18:44:41.011Z,5.88
2023-01-13T18:47:07.470Z,2.75
2023-01-13T18:49:33.828Z,4.55
2023-01-13T18:52:00.591Z,6.03
2023-01-13T18:54:27.228Z,4.53
2023-01-13T18:56:53.633Z,5.28
2023-01-13T18:59:20.175Z,2.63
2023-01-13T19:01:46.670Z,8.15
2023-01-13T19:04:15.885Z,8.43
2023-01-13T19:06:51.666Z,5.03
2023-01-13T19:09:26.763Z,8.27
2023-01-13T19:11:53.447Z,4.05
2023-01-13T19:14:37.669Z,3.80
2023-01-13T19:17:09.697Z,6.82
2023-01-13T19:19:40.507Z,8.97
2023-01-13T19:22:08.629Z,6.97
2023-01-13T19:24:35.140Z,4.20
2023-01-13T19:27:01.770Z,4.93
2023-01-13T19:29:28.475Z,8.35
2023-01-13T19:31:54.885Z,8.00
2023-01-13T19:34:24.085Z,5.22
2023-01-13T19:36:52.274Z,13.07
2023-01-13T19:39:19.936Z,5.10
2023-01-13T19:42:05.216Z,6.65
2023-01-13T19:44:50.499Z,5.93
2023-01-13T19:47:17.081Z,4.70
2023-01-13T19:49:44.277Z,8.48
2023-01-13T19:52:11.349Z,10.88
2023-01-13T19:54:37.804Z,5.60
2023-01-13T19:57:04.605Z,9.37
2023-01-13T19:59:32.471Z,7.07
2023-01-13T20:02:03.787Z,5.47
2023-01-13T20:04:38.292Z,6.30
2023-01-13T20:07:06.051Z,5.45
2023-01-13T20:09:34.356Z,7.47
2023-01-13T20:12:13.065Z,3.15
2023-01-13T20:14:39.637Z,5.25
2023-01-13T20:17:06.689Z,11.38
2023-01-13T20:19:33.413Z,4.60
2023-01-13T20:21:59.945Z,6.73
2023-01-13T20:24:26.416Z,6.32
2023-01-13T20:26:54.262Z,6.65
2023-01-13T20:29:21.470Z,3.53
2023-01-13T20:31:48.428Z,6.45
2023-01-13T20:34:18.125Z,5.57
2023-01-13T20:36:45.632Z,6.00
2023-01-13T20:39:17.876Z,6.90
2023-01-13T20:42:02.981Z,3.22
2023-01-13T20:44:29.532Z,6.35
2023-01-13T20:46:57.829Z,6.27
2023-01-13T20:49:25.946Z,4.65
2023-01-13T20:51:52.810Z,3.38
2023-01-13T20:54:19.964Z,2.90
2023-01-13T20:56:46.445Z,5.28
2023-01-13T20:59:13.031Z,4.93
2023-01-13T21:01:39.691Z,6.13
2023-01-13T21:04:07.004Z,3.80
2023-01-13T21:06:34.280Z,4.47
2023-01-13T21:09:00.858Z,7.63
2023-01-13T21:11:47.433Z,9.00
2023-01-13T21:14:39.029Z,6.65
2023-01-13T21:17:06.673Z,6.18
2023-01-13T21:19:33.440Z,10.75
2023-01-13T21:21:59.833Z,6.75
2023-01-13T21:24:26.561Z,6.03
2023-01-13T21:26:56.659Z,6.55
2023-01-13T21:29:23.086Z,4.97
2023-01-13T21:31:49.583Z,7.50
2023-01-13T21:34:16.132Z,7.32
2023-01-13T21:36:42.565Z,7.80
2023-01-13T21:39:09.263Z,7.05
2023-01-13T21:41:54.442Z,8.32
2023-01-13T21:44:39.773Z,5.93
2023-01-13T21:47:33.604Z,7.07
2023-01-13T21:50:00.907Z,10.07
2023-01-13T21:52:27.934Z,8.57
2023-01-13T21:55:13.081Z,3.60
2023-01-13T21:57:39.498Z,9.32
2023-01-13T22:00:06.423Z,11.13
2023-01-13T22:02:32.976Z,13.70
2023-01-13T22:05:00.926Z,6.72
2023-01-13T22:07:28.606Z,12.95
2023-01-13T22:09:55.922Z,6.88
2023-01-13T22:12:24.303Z,9.75
2023-01-13T22:14:51.795Z,10.20
2023-01-13T22:17:20.729Z,8.70
2023-01-13T22:19:48.395Z,6.63
2023-01-13T22:22:18.486Z,6.03
2023-01-13T22:24:47.337Z,9.77
2023-01-13T22:27:16.669Z,7.37
2023-01-13T22:29:43.162Z,9.52
2023-01-13T22:32:09.663Z,7.43
2023-01-13T22:34:36.081Z,7.40
2023-01-13T22:37:02.720Z,12.07
2023-01-13T22:39:29.728Z,7.80
2023-01-13T22:41:56.223Z,7.70
2023-01-13T22:44:23.141Z,9.48
2023-01-13T22:46:49.655Z,12.68
2023-01-13T22:49:17.073Z,7.00
2023-01-13T22:51:44.128Z,6.90
2023-01-13T22:54:11.837Z,8.77
2023-01-13T22:56:39.049Z,9.02
2023-01-13T22:59:07.418Z,7.93
2023-01-13T23:01:35.644Z,11.80
2023-01-13T23:04:03.181Z,9.90
2023-01-13T23:06:32.133Z,7.97
2023-01-13T23:08:59.505Z,6.82
2023-01-13T23:11:27.838Z,9.27
2023-01-13T23:14:05.556Z,7.45
2023-01-13T23:16:35.969Z,9.50
2023-01-13T23:19:03.284Z,10.18
2023-01-13T23:21:31.688Z,7.57
2023-01-13T23:23:58.975Z,9.30
2023-01-13T23:26:26.588Z,9.25
2023-01-13T23:28:53.125Z,6.40
2023-01-13T23:31:21.987Z,9.75
2023-01-13T23:33:48.991Z,14.50
2023-01-13T23:36:21.164Z,8.00
2023-01-13T23:38:47.623Z,8.90
2023-01-13T23:41:16.382Z,11.30
2023-01-13T23:43:42.870Z,7.30
2023-01-13T23:46:13.917Z,10.75
2023-01-13T23:48:40.423Z,6.90
2023-01-13T23:51:11.022Z,8.77
2023-01-13T23:53:40.657Z,8.63
2023-01-13T23:56:10.385Z,8.80
2023-01-13T23:58:36.786Z,13.75
